createdAt,value
2023-02-28T00:01:14.382Z,7.57
2023-02-28T00:03:40.887Z,7.10
2023-02-28T00:06:08.575Z,7.90
2023-02-28T00:08:34.907Z,7.07
2023-02-28T00:11:03.780Z,7.85
2023-02-28T00:13:30.280Z,7.80
2023-02-28T00:16:08.082Z,7.75
2023-02-28T00:18:34.561Z,7.38
2023-02-28T00:21:00.970Z,6.95
2023-02-28T00:23:28.384Z,9.93
2023-02-28T00:25:55.282Z,8.48
2023-02-28T00:28:22.104Z,7.68
2023-02-28T00:30:48.570Z,7.32
2023-02-28T00:33:15.816Z,7.25
2023-02-28T00:35:42.280Z,7.93
2023-02-28T00:38:08.686Z,10.98
2023-02-28T00:40:35.087Z,7.05
2023-02-28T00:43:01.518Z,7.93
2023-02-28T00:45:28.018Z,7.22
2023-02-28T00:47:54.372Z,7.53
2023-02-28T00:50:21.230Z,6.97
2023-02-28T00:52:57.977Z,7.28
2023-02-28T00:55:24.342Z,7.50
2023-02-28T00:57:50.870Z,12.40
2023-02-28T01:00:18.108Z,7.20
2023-02-28T01:02:44.483Z,8.38
2023-02-28T01:05:10.862Z,7.03
2023-02-28T01:07:37.335Z,7.32
2023-02-28T01:10:03.990Z,9.35
2023-02-28T01:12:31.124Z,7.40
2023-02-28T01:14:58.055Z,7.70
2023-02-28T01:17:24.558Z,7.88
2023-02-28T01:19:55.053Z,8.48
2023-02-28T01:22:21.534Z,7.07
2023-02-28T01:24:55.654Z,7.55
2023-02-28T01:27:44.577Z,7.93
2023-02-28T01:30:11.509Z,7.43
2023-02-28T01:32:37.896Z,8.30
2023-02-28T01:35:04.570Z,7.97
2023-02-28T01:37:31.011Z,7.93
2023-02-28T01:39:57.465Z,7.53
2023-02-28T01:42:24.069Z,9.70
2023-02-28T01:45:01.526Z,7.85
2023-02-28T01:47:32.610Z,7.70
2023-02-28T01:50:01.779Z,7.65
2023-02-28T01:52:29.164Z,7.20
2023-02-28T01:55:00.168Z,7.53
2023-02-28T01:57:38.346Z,7.43
2023-02-28T02:00:10.185Z,7.85
2023-02-28T02:02:37.877Z,8.55
2023-02-28T02:05:12.980Z,7.18
2023-02-28T02:07:42.375Z,7.22
2023-02-28T02:10:12.626Z,8.07
2023-02-28T02:12:57.331Z,10.65
2023-02-28T02:15:31.911Z,7.97
2023-02-28T02:18:21.765Z,8.00
2023-02-28T02:21:22.271Z,9.90
2023-02-28T02:24:45.294Z,8.75
2023-02-28T02:30:41.339Z,7.75
2023-02-28T02:33:28.885Z,8.02
2023-02-28T02:36:17.469Z,11.70
2023-02-28T02:39:03.135Z,8.85
2023-02-28T02:41:52.601Z,8.40
2023-02-28T02:44:19.126Z,7.75
2023-02-28T02:46:46.997Z,8.35
2023-02-28T02:49:34.753Z,10.52
2023-02-28T02:52:08.431Z,8.95
2023-02-28T02:54:40.976Z,8.50
2023-02-28T02:57:33.554Z,9.07
2023-02-28T03:00:02.514Z,7.88
2023-02-28T03:02:34.866Z,8.20
2023-02-28T03:05:07.380Z,7.80
2023-02-28T03:07:33.836Z,15.10
2023-02-28T03:10:00.259Z,7.65
2023-02-28T03:12:42.546Z,9.05
2023-02-28T03:15:19.856Z,8.18
2023-02-28T03:18:01.587Z,7.55
2023-02-28T03:20:57.448Z,7.45
2023-02-28T03:23:50.486Z,7.78
2023-02-28T03:26:23.701Z,7.78
2023-02-28T03:28:56.245Z,8.30
2023-02-28T03:31:42.370Z,7.78
2023-02-28T03:34:18.083Z,7.85
2023-02-28T03:36:48.908Z,8.95
2023-02-28T03:39:21.258Z,7.72
2023-02-28T03:41:57.608Z,8.32
2023-02-28T03:44:34.954Z,8.20
2023-02-28T03:47:18.782Z,7.97
2023-02-28T03:49:55.163Z,8.52
2023-02-28T03:52:25.289Z,8.63
2023-02-28T03:55:03.583Z,8.35
2023-02-28T03:57:41.164Z,10.55
2023-02-28T04:00:20.271Z,8.65
2023-02-28T04:02:47.042Z,8.80
2023-02-28T04:05:13.512Z,8.30
2023-02-28T04:07:39.957Z,11.82
2023-02-28T04:10:07.336Z,8.90
2023-02-28T04:12:33.781Z,9.35
2023-02-28T04:15:00.211Z,10.95
2023-02-28T04:17:26.844Z,9.32
2023-02-28T04:19:57.895Z,9.40
2023-02-28T04:22:29.945Z,8.65
2023-02-28T04:25:02.154Z,8.20
2023-02-28T04:27:28.665Z,9.23
2023-02-28T04:29:55.065Z,8.93
2023-02-28T04:32:21.734Z,9.57
2023-02-28T04:34:48.310Z,12.10
2023-02-28T04:37:14.776Z,10.18
2023-02-28T04:42:22.540Z,9.93
2023-02-28T04:44:48.908Z,9.90
2023-02-28T04:47:16.713Z,9.63
2023-02-28T04:49:43.106Z,11.63
2023-02-28T04:52:11.071Z,10.82
2023-02-28T04:54:39.795Z,9.82
2023-02-28T04:57:08.754Z,9.40
2023-02-28T04:59:35.167Z,11.85
2023-02-28T05:02:08.033Z,9.00
2023-02-28T05:04:35.363Z,8.50
2023-02-28T05:07:02.629Z,7.95
2023-02-28T05:09:30.879Z,8.75
2023-02-28T05:11:57.734Z,8.00
2023-02-28T05:14:24.177Z,8.45
2023-02-28T05:16:50.614Z,8.20
2023-02-28T05:19:17.115Z,8.27
2023-02-28T05:21:57.265Z,7.75
2023-02-28T05:24:29.496Z,7.97
2023-02-28T05:26:56.423Z,8.82
2023-02-28T05:29:23.200Z,7.88
2023-02-28T05:31:54.688Z,7.70
2023-02-28T05:34:24.379Z,7.93
2023-02-28T05:36:50.778Z,7.32
2023-02-28T05:39:23.547Z,8.13
2023-02-28T05:41:49.984Z,7.72
2023-02-28T05:44:19.323Z,7.93
2023-02-28T05:46:45.784Z,7.35
2023-02-28T05:49:12.294Z,7.57
2023-02-28T05:51:40.769Z,7.60
2023-02-28T05:54:08.081Z,7.15
2023-02-28T05:56:40.038Z,7.55
2023-02-28T05:59:07.300Z,7.43
2023-02-28T06:01:41.256Z,7.72
2023-02-28T06:06:47.156Z,6.95
2023-02-28T06:09:14.231Z,8.55
2023-02-28T06:11:41.049Z,7.95
2023-02-28T06:14:07.667Z,7.28
2023-02-28T06:16:35.982Z,9.43
2023-02-28T06:19:05.027Z,7.70
2023-02-28T06:21:31.842Z,7.30
2023-02-28T06:24:01.765Z,8.43
2023-02-28T06:26:28.204Z,8.05
2023-02-28T06:28:55.686Z,6.60
2023-02-28T06:31:25.068Z,6.95
2023-02-28T06:33:57.446Z,6.63
2023-02-28T06:36:23.929Z,8.02
2023-02-28T06:38:57.659Z,7.22
2023-02-28T06:41:28.445Z,6.82
2023-02-28T06:43:55.271Z,6.30
2023-02-28T06:46:22.547Z,6.93
2023-02-28T06:48:49.027Z,7.35
2023-02-28T06:51:25.188Z,6.63
2023-02-28T06:53:52.124Z,7.97
2023-02-28T06:56:19.533Z,6.38
2023-02-28T06:58:55.875Z,6.75
2023-02-28T07:01:24.535Z,6.80
2023-02-28T07:03:53.268Z,5.95
2023-02-28T07:06:21.070Z,6.13
2023-02-28T07:08:47.482Z,6.20
2023-02-28T07:11:28.861Z,9.40
2023-02-28T07:13:58.933Z,7.05
2023-02-28T07:16:26.802Z,6.38
2023-02-28T07:18:54.462Z,6.35
2023-02-28T07:21:21.542Z,6.35
2023-02-28T07:23:54.286Z,7.82
2023-02-28T07:26:23.538Z,6.57
2023-02-28T07:28:50.557Z,7.05
2023-02-28T07:31:18.243Z,6.70
2023-02-28T07:33:44.905Z,6.07
2023-02-28T07:36:16.212Z,6.93
2023-02-28T07:38:46.322Z,7.03
2023-02-28T07:41:14.617Z,6.70
2023-02-28T07:43:41.042Z,6.22
2023-02-28T07:46:10.281Z,6.95
2023-02-28T07:48:36.794Z,5.35
2023-02-28T07:51:03.667Z,6.00
2023-02-28T07:53:30.597Z,6.22
2023-02-28T07:55:58.756Z,5.70
2023-02-28T07:58:26.203Z,5.22
2023-02-28T08:01:13.850Z,5.68
2023-02-28T08:03:40.774Z,5.45
2023-02-28T08:06:08.936Z,8.35
2023-02-28T08:08:35.362Z,5.80
2023-02-28T08:11:03.360Z,4.88
2023-02-28T08:13:30.857Z,5.07
2023-02-28T08:15:57.693Z,5.47
2023-02-28T08:18:24.588Z,5.28
2023-02-28T08:20:51.119Z,5.05
2023-02-28T08:23:17.529Z,5.35
2023-02-28T08:25:43.965Z,5.57
2023-02-28T08:28:10.401Z,5.60
2023-02-28T08:30:36.750Z,5.60
2023-02-28T08:33:03.312Z,5.78
2023-02-28T08:35:29.838Z,6.68
2023-02-28T08:37:56.243Z,5.47
2023-02-28T08:40:22.910Z,5.32
2023-02-28T08:42:50.448Z,5.22
2023-02-28T08:45:17.059Z,5.60
2023-02-28T08:47:43.477Z,5.32
2023-02-28T08:50:10.552Z,5.68
2023-02-28T08:52:37.032Z,5.32
2023-02-28T08:55:03.626Z,4.93
2023-02-28T08:57:30.103Z,6.50
2023-02-28T08:59:56.553Z,5.35
2023-02-28T09:02:23.209Z,5.55
2023-02-28T09:04:49.574Z,4.78
2023-02-28T09:07:16.599Z,4.50
2023-02-28T09:09:54.507Z,4.72
2023-02-28T09:12:28.297Z,8.38
2023-02-28T09:14:55.045Z,4.28
2023-02-28T09:17:21.474Z,4.18
2023-02-28T09:19:52.894Z,4.03
2023-02-28T09:22:19.336Z,4.00
2023-02-28T09:24:45.757Z,4.13
2023-02-28T09:27:12.319Z,4.13
2023-02-28T09:29:38.681Z,3.42
2023-02-28T09:32:06.633Z,4.15
2023-02-28T09:34:41.454Z,3.75
2023-02-28T09:37:08.004Z,3.55
2023-02-28T09:39:34.450Z,3.45
2023-02-28T09:42:02.880Z,3.53
2023-02-28T09:44:34.308Z,3.58
2023-02-28T09:47:08.665Z,4.00
2023-02-28T09:49:42.006Z,3.65
2023-02-28T09:52:29.857Z,3.80
2023-02-28T09:54:56.214Z,3.88
2023-02-28T09:57:32.761Z,3.83
2023-02-28T10:00:11.130Z,4.03
2023-02-28T10:03:07.567Z,4.13
2023-02-28T10:05:36.965Z,4.25
2023-02-28T10:08:26.140Z,6.07
2023-02-28T10:10:58.073Z,4.05
2023-02-28T10:13:51.309Z,3.80
2023-02-28T10:16:23.664Z,4.10
2023-02-28T10:18:57.518Z,4.28
2023-02-28T10:21:34.559Z,4.18
2023-02-28T10:24:17.358Z,3.80
2023-02-28T10:26:46.061Z,3.90
2023-02-28T10:29:12.698Z,3.90
2023-02-28T10:31:39.635Z,3.97
2023-02-28T10:34:07.171Z,4.28
2023-02-28T10:36:35.912Z,3.92
2023-02-28T10:39:02.600Z,4.10
2023-02-28T10:41:35.643Z,4.13
2023-02-28T10:44:24.415Z,3.75
2023-02-28T10:46:51.995Z,3.70
2023-02-28T10:49:32.035Z,3.72
2023-02-28T10:52:13.160Z,4.00
2023-02-28T10:54:39.731Z,3.78
2023-02-28T10:57:10.198Z,3.95
2023-02-28T10:59:37.190Z,3.83
2023-02-28T11:02:30.595Z,3.80
2023-02-28T11:04:57.015Z,4.00
2023-02-28T11:07:27.803Z,4.25
2023-02-28T11:09:59.297Z,4.03
2023-02-28T11:12:50.791Z,3.75
2023-02-28T11:18:41.797Z,3.38
2023-02-28T11:21:10.141Z,3.90
2023-02-28T11:23:41.454Z,3.70
2023-02-28T11:26:11.812Z,4.93
2023-02-28T11:28:40.758Z,3.53
2023-02-28T11:31:14.623Z,4.18
2023-02-28T11:33:46.576Z,3.85
2023-02-28T11:36:23.758Z,3.45
2023-02-28T11:38:53.209Z,4.00
2023-02-28T11:41:40.881Z,3.75
2023-02-28T11:44:38.529Z,4.53
2023-02-28T11:47:18.559Z,3.60
2023-02-28T11:50:03.124Z,3.90
2023-02-28T11:52:51.910Z,4.15
2023-02-28T11:55:39.081Z,3.65
2023-02-28T11:58:34.867Z,3.78
2023-02-28T12:01:01.312Z,4.47
2023-02-28T12:03:51.832Z,4.78
2023-02-28T12:06:39.481Z,4.68
2023-02-28T12:09:24.653Z,5.35
2023-02-28T12:12:19.520Z,4.78
2023-02-28T12:15:15.621Z,5.22
2023-02-28T12:17:56.693Z,4.15
2023-02-28T12:20:57.814Z,5.07
2023-02-28T12:23:36.359Z,3.90
2023-02-28T12:26:15.133Z,4.68
2023-02-28T12:28:47.370Z,3.90
2023-02-28T12:31:22.871Z,4.13
2023-02-28T12:33:54.373Z,3.85
2023-02-28T12:36:27.118Z,4.50
2023-02-28T12:39:01.199Z,4.65
2023-02-28T12:41:48.754Z,4.50
2023-02-28T12:44:33.560Z,3.75
2023-02-28T12:47:03.057Z,4.03
2023-02-28T12:49:34.800Z,4.25
2023-02-28T12:52:03.998Z,4.35
2023-02-28T12:54:45.065Z,5.45
2023-02-28T12:57:34.605Z,3.78
2023-02-28T13:00:06.000Z,4.78
2023-02-28T13:02:51.216Z,4.47
2023-02-28T13:05:54.657Z,4.22
2023-02-28T13:08:42.519Z,4.30
2023-02-28T13:11:25.159Z,4.20
2023-02-28T13:13:59.443Z,4.07
2023-02-28T13:18:53.604Z,4.13
2023-02-28T13:21:29.748Z,4.68
2023-02-28T13:23:59.474Z,4.20
2023-02-28T13:26:31.899Z,5.15
2023-02-28T13:29:23.754Z,4.05
2023-02-28T13:32:10.385Z,4.00
2023-02-28T13:34:40.212Z,4.47
2023-02-28T13:37:18.817Z,4.80
2023-02-28T13:39:51.076Z,4.95
2023-02-28T13:42:23.738Z,5.03
2023-02-28T13:45:05.294Z,4.88
2023-02-28T13:47:44.062Z,5.07
2023-02-28T13:50:31.901Z,4.88
2023-02-28T13:53:15.907Z,5.07
2023-02-28T13:56:18.541Z,5.07
2023-02-28T13:59:06.250Z,5.25
2023-02-28T14:01:52.544Z,5.10
2023-02-28T14:04:44.236Z,4.45
2023-02-28T14:07:19.313Z,5.43
2023-02-28T14:10:06.263Z,4.45
2023-02-28T14:13:09.736Z,4.95
2023-02-28T14:15:39.187Z,4.53
2023-02-28T14:18:29.261Z,5.22
2023-02-28T14:21:27.960Z,4.07
2023-02-28T14:24:22.268Z,3.88
2023-02-28T14:27:11.727Z,3.40
2023-02-28T14:30:15.305Z,5.05
2023-02-28T14:32:44.669Z,3.90
2023-02-28T14:35:44.750Z,5.75
2023-02-28T14:38:28.849Z,4.07
2023-02-28T14:40:58.172Z,6.32
2023-02-28T14:43:27.772Z,5.75
2023-02-28T14:45:58.641Z,4.60
2023-02-28T14:48:26.775Z,5.05
2023-02-28T14:51:01.139Z,3.90
2023-02-28T14:53:35.739Z,3.95
2023-02-28T14:56:02.278Z,6.93
2023-02-28T14:58:31.318Z,4.45
2023-02-28T15:01:00.179Z,4.90
2023-02-28T15:03:33.666Z,3.75
2023-02-28T15:06:06.179Z,4.47
2023-02-28T15:08:36.745Z,3.95
2023-02-28T15:11:07.187Z,4.32
2023-02-28T15:13:42.736Z,4.13
2023-02-28T15:16:13.782Z,4.20
2023-02-28T15:18:43.101Z,3.78
2023-02-28T15:21:24.605Z,4.05
2023-02-28T15:23:55.732Z,5.03
2023-02-28T15:26:28.101Z,3.95
2023-02-28T15:29:13.041Z,4.05
2023-02-28T15:31:58.448Z,4.03
2023-02-28T15:34:43.534Z,4.50
2023-02-28T15:37:38.268Z,4.35
2023-02-28T15:40:41.522Z,4.93
2023-02-28T15:43:17.889Z,4.18
2023-02-28T15:45:53.840Z,5.10
2023-02-28T15:48:27.903Z,6.88
2023-02-28T15:51:01.938Z,5.50
2023-02-28T15:53:36.767Z,5.05
2023-02-28T15:56:07.519Z,4.72
2023-02-28T15:58:37.659Z,4.65
2023-02-28T16:01:27.380Z,4.60
2023-02-28T16:03:56.444Z,4.50
2023-02-28T16:06:31.840Z,4.70
2023-02-28T16:08:58.261Z,5.18
2023-02-28T16:11:24.645Z,4.15
2023-02-28T16:13:52.482Z,4.72
2023-02-28T16:16:25.416Z,4.75
2023-02-28T16:18:51.952Z,4.70
2023-02-28T16:21:18.440Z,6.22
2023-02-28T16:23:44.821Z,5.00
2023-02-28T16:26:20.672Z,5.00
2023-02-28T16:28:47.171Z,4.68
2023-02-28T16:31:17.204Z,5.20
2023-02-28T16:33:45.760Z,5.30
2023-02-28T16:36:17.643Z,4.90
2023-02-28T16:38:44.468Z,4.78
2023-02-28T16:41:18.118Z,4.90
2023-02-28T16:43:45.251Z,4.93
2023-02-28T16:46:13.576Z,10.50
2023-02-28T16:48:41.449Z,5.50
2023-02-28T16:51:13.760Z,4.90
2023-02-28T16:53:40.570Z,6.15
2023-02-28T16:56:10.560Z,5.25
2023-02-28T16:58:37.000Z,5.70
2023-02-28T17:01:04.689Z,5.32
2023-02-28T17:03:33.455Z,6.38
2023-02-28T17:06:01.099Z,6.57
2023-02-28T17:08:29.622Z,6.47
2023-02-28T17:10:56.276Z,6.63
2023-02-28T17:13:22.641Z,7.10
2023-02-28T17:15:49.108Z,5.57
2023-02-28T17:18:19.724Z,5.60
2023-02-28T17:20:47.181Z,5.28
2023-02-28T17:23:13.631Z,5.20
2023-02-28T17:25:39.956Z,5.22
2023-02-28T17:28:06.356Z,5.07
2023-02-28T17:30:35.726Z,5.30
2023-02-28T17:33:02.470Z,5.47
2023-02-28T17:35:29.264Z,5.55
2023-02-28T17:37:55.808Z,6.93
2023-02-28T17:40:29.247Z,5.45
2023-02-28T17:43:03.479Z,5.28
2023-02-28T17:45:40.556Z,6.05
2023-02-28T17:48:17.897Z,5.45
2023-02-28T17:50:44.983Z,5.53
2023-02-28T17:53:18.857Z,6.88
2023-02-28T17:55:54.606Z,6.05
2023-02-28T17:58:29.260Z,5.82
2023-02-28T18:00:56.109Z,5.57
2023-02-28T18:03:22.788Z,6.40
2023-02-28T18:05:50.026Z,5.80
2023-02-28T18:08:17.192Z,5.65
2023-02-28T18:10:43.521Z,5.40
2023-02-28T18:13:13.379Z,6.00
2023-02-28T18:15:40.495Z,7.28
2023-02-28T18:18:07.620Z,5.22
2023-02-28T18:20:35.406Z,5.45
2023-02-28T18:23:02.166Z,5.63
2023-02-28T18:25:28.521Z,5.45
2023-02-28T18:27:58.377Z,6.13
2023-02-28T18:30:30.142Z,5.38
2023-02-28T18:32:56.677Z,7.22
2023-02-28T18:35:35.989Z,6.45
2023-02-28T18:38:15.750Z,7.22
2023-02-28T18:40:43.389Z,7.00
2023-02-28T18:43:09.948Z,6.30
2023-02-28T18:45:39.385Z,5.85
2023-02-28T18:48:07.151Z,5.82
2023-02-28T18:50:34.452Z,5.93
2023-02-28T18:53:03.355Z,7.40
2023-02-28T18:55:32.298Z,6.20
2023-02-28T18:58:00.774Z,5.47
2023-02-28T19:00:27.396Z,5.93
2023-02-28T19:02:56.289Z,6.65
2023-02-28T19:05:23.046Z,6.80
2023-02-28T19:07:49.591Z,6.53
2023-02-28T19:10:17.975Z,6.47
2023-02-28T19:12:47.244Z,6.95
2023-02-28T19:15:17.325Z,6.20
2023-02-28T19:17:46.509Z,6.53
2023-02-28T19:20:23.001Z,6.30
2023-02-28T19:23:00.581Z,8.35
2023-02-28T19:25:28.534Z,5.93
2023-02-28T19:28:00.184Z,7.22
2023-02-28T19:30:26.664Z,7.78
2023-02-28T19:32:53.505Z,9.77
2023-02-28T19:35:27.581Z,9.25
2023-02-28T19:37:57.901Z,6.78
2023-02-28T19:40:25.505Z,6.50
2023-02-28T19:42:52.175Z,6.20
2023-02-28T19:45:27.333Z,6.63
2023-02-28T19:47:59.163Z,6.30
2023-02-28T19:50:27.350Z,7.30
2023-02-28T19:52:53.976Z,7.47
2023-02-28T19:55:27.118Z,9.45
2023-02-28T19:57:53.643Z,6.35
2023-02-28T20:00:20.208Z,6.43
2023-02-28T20:02:47.824Z,6.00
2023-02-28T20:05:14.277Z,8.05
2023-02-28T20:07:40.793Z,6.82
2023-02-28T20:10:07.891Z,7.38
2023-02-28T20:12:34.649Z,6.57
2023-02-28T20:15:01.344Z,6.45
2023-02-28T20:17:28.891Z,7.05
2023-02-28T20:19:55.382Z,7.10
2023-02-28T20:22:24.305Z,6.70
2023-02-28T20:24:50.784Z,8.95
2023-02-28T20:27:17.378Z,9.45
2023-02-28T20:29:43.808Z,7.53
2023-02-28T20:32:10.380Z,7.10
2023-02-28T20:34:37.175Z,7.20
2023-02-28T20:37:03.629Z,7.95
2023-02-28T20:39:30.290Z,6.80
2023-02-28T20:41:56.740Z,7.28
2023-02-28T20:44:23.541Z,6.35
2023-02-28T20:46:51.118Z,6.50
2023-02-28T20:49:17.611Z,6.82
2023-02-28T20:51:44.226Z,6.28
2023-02-28T20:54:16.099Z,6.20
2023-02-28T20:56:44.867Z,6.60
2023-02-28T20:59:12.359Z,6.35
2023-02-28T21:01:40.605Z,8.35
2023-02-28T21:04:07.999Z,6.10
2023-02-28T21:06:38.694Z,6.85
2023-02-28T21:09:07.417Z,8.30
2023-02-28T21:11:36.798Z,7.25
2023-02-28T21:14:09.645Z,6.18
2023-02-28T21:16:37.922Z,6.47
2023-02-28T21:19:05.354Z,7.05
2023-02-28T21:21:44.067Z,6.55
2023-02-28T21:24:12.469Z,9.45
2023-02-28T21:26:44.467Z,8.13
2023-02-28T21:29:13.972Z,7.10
2023-02-28T21:31:46.962Z,6.40
2023-02-28T21:34:16.449Z,7.55
2023-02-28T21:36:47.418Z,7.95
2023-02-28T21:39:29.616Z,7.35
2023-02-28T21:42:07.317Z,7.75
2023-02-28T21:44:36.819Z,7.40
2023-02-28T21:47:03.495Z,7.93
2023-02-28T21:49:30.346Z,13.10
2023-02-28T21:51:59.205Z,8.10
2023-02-28T21:54:36.992Z,9.52
2023-02-28T21:57:17.019Z,8.68
2023-02-28T21:59:43.874Z,8.80
2023-02-28T22:02:11.748Z,8.55
2023-02-28T22:04:38.362Z,7.97
2023-02-28T22:07:05.383Z,8.70
2023-02-28T22:09:32.265Z,8.02
2023-02-28T22:11:58.886Z,8.43
2023-02-28T22:14:25.327Z,7.93
2023-02-28T22:16:54.478Z,8.32
2023-02-28T22:19:22.464Z,8.50
2023-02-28T22:21:51.434Z,9.25
2023-02-28T22:24:20.641Z,9.15
2023-02-28T22:26:48.949Z,9.15
2023-02-28T22:29:17.803Z,9.32
2023-02-28T22:31:44.354Z,9.15
2023-02-28T22:34:12.030Z,10.75
2023-02-28T22:36:41.479Z,11.27
2023-02-28T22:39:08.633Z,8.75
2023-02-28T22:41:35.166Z,9.32
2023-02-28T22:44:03.607Z,14.05
2023-02-28T22:46:34.796Z,9.25
2023-02-28T22:49:03.330Z,9.50
2023-02-28T22:51:29.859Z,8.95
2023-02-28T22:53:58.144Z,10.32
2023-02-28T22:56:27.770Z,12.45
2023-02-28T22:58:59.437Z,9.98
2023-02-28T23:01:29.256Z,10.52
2023-02-28T23:03:56.219Z,9.80
2023-02-28T23:06:28.669Z,9.65
2023-02-28T23:08:58.511Z,9.60
2023-02-28T23:11:27.776Z,9.65
2023-02-28T23:14:00.125Z,9.10
2023-02-28T23:16:38.617Z,9.75
2023-02-28T23:19:09.006Z,10.27
2023-02-28T23:21:35.824Z,9.52
2023-02-28T23:24:04.875Z,9.15
2023-02-28T23:26:32.828Z,9.48
2023-02-28T23:28:59.566Z,9.82
2023-02-28T23:31:26.081Z,9.15
2023-02-28T23:33:52.671Z,9.50
2023-02-28T23:36:19.265Z,9.40
2023-02-28T23:38:48.560Z,9.77
2023-02-28T23:41:16.612Z,11.50
2023-02-28T23:43:43.864Z,9.23
2023-02-28T23:46:11.720Z,10.88
2023-02-28T23:48:39.182Z,9.60
2023-02-28T23:51:10.965Z,13.32
2023-02-28T23:53:39.568Z,10.15
2023-02-28T23:56:07.721Z,10.77
2023-02-28T23:58:34.359Z,9.60
